Rhymney, United Kingdom
Current Conditions -  °F | °C
As of 9:50 AM on Sunday 21 Dec 2014 (Local Time) from EGFF Reporting Station
Overcast Overcast  
Wind Chill: 42°   Ceiling: 500
Heat Index: 48°   Visibility: 6mi
Dew Point: 46°   Wind: 18mph
Humidity: 93%   Direction: 250°WSW
Pressure: 30.33"   Gusts: NA
Location:  51.76°N, 3.29°W
Report Text: EGFF 210950Z AUTO 25016KT 9999 BKN005 BKN017 OVC029 09/08 Q1027 RERA REDZ
Loading
Personal Weather Stations






























Interactive Weather Map New forecast layout! Learn more

10-Day Weather Forecast

Advertisements
Track Severe Weather on mobile